createdAt,value
2023-04-27T00:01:19.766Z,68.60
2023-04-27T00:03:46.576Z,27.10
2023-04-27T00:06:13.631Z,10.00
2023-04-27T00:08:40.372Z,29.50
2023-04-27T00:11:07.075Z,47.00
2023-04-27T00:13:33.787Z,62.30
2023-04-27T00:16:03.508Z,66.40
2023-04-27T00:18:31.248Z,82.50
2023-04-27T00:20:58.637Z,85.10
2023-04-27T00:23:26.261Z,1.00
2023-04-27T00:25:52.956Z,1.00
2023-04-27T00:28:19.888Z,1.00
2023-04-27T00:30:46.730Z,1.00
2023-04-27T00:33:13.454Z,1.00
2023-04-27T00:35:40.130Z,1.00
2023-04-27T00:38:06.861Z,1.00
2023-04-27T00:40:33.591Z,1.00
2023-04-27T00:43:01.048Z,1.00
2023-04-27T00:45:27.937Z,1.00
2023-04-27T00:47:55.258Z,1.00
2023-04-27T00:50:30.116Z,1.00
2023-04-27T00:52:57.447Z,1.00
2023-04-27T00:55:24.560Z,1.00
2023-04-27T00:57:51.828Z,1.00
2023-04-27T01:00:18.901Z,1.00
2023-04-27T01:02:46.144Z,2.50
2023-04-27T01:05:13.591Z,31.70
2023-04-27T01:07:41.894Z,53.70
2023-04-27T01:10:09.379Z,62.00
2023-04-27T01:12:36.264Z,70.50
2023-04-27T01:15:03.061Z,73.40
2023-04-27T01:17:29.816Z,74.60
2023-04-27T01:19:56.789Z,72.90
2023-04-27T01:22:23.600Z,72.30
2023-04-27T01:24:50.393Z,70.50
2023-04-27T01:27:17.197Z,75.00
2023-04-27T01:29:44.596Z,80.40
2023-04-27T01:32:12.925Z,79.60
2023-04-27T01:34:39.780Z,79.30
2023-04-27T01:37:06.586Z,76.50
2023-04-27T01:39:33.497Z,79.50
2023-04-27T01:42:00.396Z,80.50
2023-04-27T01:44:27.140Z,82.50
2023-04-27T01:46:53.899Z,84.20
2023-04-27T01:49:20.604Z,89.60
2023-04-27T01:51:47.410Z,92.50
2023-04-27T01:54:14.158Z,1.00
2023-04-27T01:56:41.105Z,1.00
2023-04-27T01:59:07.913Z,1.00
2023-04-27T02:01:34.662Z,1.00
2023-04-27T02:04:01.622Z,1.00
2023-04-27T02:06:28.476Z,1.00
2023-04-27T02:08:55.238Z,1.00
2023-04-27T02:11:22.314Z,1.00
2023-04-27T02:13:49.033Z,1.00
2023-04-27T02:16:15.951Z,1.00
2023-04-27T02:18:42.841Z,1.00
2023-04-27T02:21:10.786Z,1.00
2023-04-27T02:23:37.836Z,1.00
2023-04-27T02:26:04.798Z,1.00
2023-04-27T02:28:32.375Z,1.00
2023-04-27T02:30:59.573Z,1.00
2023-04-27T02:33:26.370Z,1.00
2023-04-27T02:35:53.106Z,1.00
2023-04-27T02:38:19.816Z,1.00
2023-04-27T02:40:46.515Z,1.00
2023-04-27T02:43:13.305Z,1.00
2023-04-27T02:45:40.065Z,1.00
2023-04-27T02:48:07.132Z,1.00
2023-04-27T02:50:35.758Z,1.00
2023-04-27T02:53:02.833Z,1.00
2023-04-27T02:55:29.865Z,1.00
2023-04-27T02:57:56.577Z,1.00
2023-04-27T03:00:23.893Z,11.20
2023-04-27T03:02:50.999Z,19.70
2023-04-27T03:05:17.934Z,26.60
2023-04-27T03:07:44.944Z,35.10
2023-04-27T03:10:11.730Z,42.10
2023-04-27T03:12:38.530Z,41.40
2023-04-27T03:15:05.806Z,44.60
2023-04-27T03:17:32.613Z,46.20
2023-04-27T03:19:59.393Z,47.60
2023-04-27T03:22:26.198Z,47.50
2023-04-27T03:24:52.953Z,60.00
2023-04-27T03:27:19.851Z,62.50
2023-04-27T03:29:46.679Z,63.40
2023-04-27T03:32:13.457Z,63.00
2023-04-27T03:34:40.224Z,63.30
2023-04-27T03:37:07.181Z,63.10
2023-04-27T03:39:33.987Z,63.40
2023-04-27T03:42:01.507Z,60.70
2023-04-27T03:44:28.282Z,61.80
2023-04-27T03:46:54.999Z,64.00
2023-04-27T03:49:21.735Z,67.50
2023-04-27T03:51:48.454Z,70.80
2023-04-27T03:54:15.228Z,70.30
2023-04-27T03:56:41.982Z,69.40
2023-04-27T03:59:08.731Z,69.80
2023-04-27T04:01:36.377Z,71.80
2023-04-27T04:04:03.295Z,75.20
2023-04-27T04:06:31.103Z,77.50
2023-04-27T04:08:58.355Z,78.40
2023-04-27T04:11:26.074Z,79.90
2023-04-27T04:13:52.878Z,80.10
2023-04-27T04:16:19.610Z,80.20
2023-04-27T04:18:46.471Z,81.00
2023-04-27T04:21:13.232Z,80.50
2023-04-27T04:23:41.207Z,80.40
2023-04-27T04:26:08.971Z,80.50
2023-04-27T04:28:35.811Z,81.00
2023-04-27T04:31:02.913Z,83.00
2023-04-27T04:33:29.740Z,84.10
2023-04-27T04:35:56.481Z,85.00
2023-04-27T04:38:23.826Z,84.80
2023-04-27T04:40:51.193Z,85.10
2023-04-27T04:43:18.059Z,84.80
2023-04-27T04:45:44.817Z,83.20
2023-04-27T04:48:11.588Z,81.70
2023-04-27T04:50:39.697Z,80.20
2023-04-27T04:53:06.620Z,78.40
2023-04-27T04:55:33.444Z,77.10
2023-04-27T04:58:00.569Z,75.40
2023-04-27T05:00:27.466Z,70.00
2023-04-27T05:02:54.387Z,66.10
2023-04-27T05:05:21.392Z,61.90
2023-04-27T05:07:48.090Z,62.90
2023-04-27T05:10:14.833Z,59.70
2023-04-27T05:12:41.610Z,40.70
2023-04-27T05:15:08.773Z,21.70
2023-04-27T05:17:35.612Z,7.20
2023-04-27T05:20:02.820Z,1.00
2023-04-27T05:22:29.510Z,1.00
2023-04-27T05:24:57.260Z,1.00
2023-04-27T05:27:24.253Z,1.00
2023-04-27T05:29:51.645Z,1.00
2023-04-27T05:32:18.355Z,1.00
2023-04-27T05:34:47.329Z,1.00
2023-04-27T05:37:15.567Z,1.00
2023-04-27T05:39:42.364Z,1.00
2023-04-27T05:42:09.135Z,1.00
2023-04-27T05:44:36.276Z,91.70
2023-04-27T05:47:03.041Z,79.30
2023-04-27T05:49:29.895Z,67.70
2023-04-27T05:51:58.931Z,68.50
2023-04-27T05:54:25.961Z,60.60
2023-04-27T05:56:52.883Z,35.80
2023-04-27T05:59:19.658Z,13.00
2023-04-27T06:01:46.368Z,10.90
2023-04-27T06:04:13.216Z,15.00
2023-04-27T06:06:40.108Z,9.50
2023-04-27T06:09:07.180Z,30.00
2023-04-27T06:11:33.938Z,12.80
2023-04-27T06:14:00.669Z,1.00
2023-04-27T06:16:27.515Z,1.00
2023-04-27T06:18:54.377Z,1.00
2023-04-27T06:21:21.246Z,93.30
2023-04-27T06:23:48.190Z,91.10
2023-04-27T06:26:14.887Z,61.20
2023-04-27T06:28:41.624Z,68.40
2023-04-27T06:31:08.349Z,95.50
2023-04-27T06:33:35.175Z,1.00
2023-04-27T06:36:02.375Z,55.50
2023-04-27T06:38:29.248Z,61.10
2023-04-27T06:40:56.305Z,1.00
2023-04-27T06:43:23.152Z,12.90
2023-04-27T06:45:49.957Z,1.00
2023-04-27T06:48:19.281Z,51.90
2023-04-27T06:50:46.470Z,1.00
2023-04-27T06:53:13.264Z,68.40
2023-04-27T06:55:43.021Z,90.90
2023-04-27T06:58:10.944Z,1.00
2023-04-27T07:00:37.659Z,1.00
2023-04-27T07:03:04.520Z,1.00
2023-04-27T07:05:31.421Z,69.80
2023-04-27T07:07:58.481Z,1.00
2023-04-27T07:10:26.266Z,64.20
2023-04-27T07:12:53.030Z,68.20
2023-04-27T07:15:19.796Z,1.00
2023-04-27T07:17:46.683Z,1.00
2023-04-27T07:20:14.340Z,1.00
2023-04-27T07:22:41.226Z,1.00
2023-04-27T07:25:08.426Z,1.00
2023-04-27T07:27:35.743Z,1.00
2023-04-27T07:30:02.739Z,85.00
2023-04-27T07:32:29.617Z,78.20
2023-04-27T07:34:57.061Z,68.60
2023-04-27T07:37:24.236Z,65.50
2023-04-27T07:39:53.123Z,62.40
2023-04-27T07:42:22.510Z,61.90
2023-04-27T07:44:50.392Z,19.50
2023-04-27T07:47:20.222Z,4.00
2023-04-27T07:49:47.209Z,13.80
2023-04-27T07:52:14.314Z,1.00
2023-04-27T07:54:41.172Z,1.00
2023-04-27T07:57:11.891Z,1.00
2023-04-27T07:59:39.474Z,1.00
2023-04-27T08:02:17.525Z,1.00
2023-04-27T08:04:45.224Z,1.00
2023-04-27T08:07:12.666Z,1.00
2023-04-27T08:09:39.687Z,1.00
2023-04-27T08:12:06.577Z,1.00
2023-04-27T08:14:35.549Z,87.20
2023-04-27T08:17:02.495Z,89.80
2023-04-27T08:19:29.409Z,82.80
2023-04-27T08:21:56.458Z,81.60
2023-04-27T08:24:23.269Z,69.60
2023-04-27T08:26:50.023Z,73.10
2023-04-27T08:29:27.245Z,76.00
2023-04-27T08:31:56.868Z,62.70
2023-04-27T08:34:24.227Z,63.70
2023-04-27T08:36:51.154Z,67.70
2023-04-27T08:39:18.311Z,27.50
2023-04-27T08:41:46.291Z,28.00
2023-04-27T08:44:13.347Z,31.10
2023-04-27T08:46:41.026Z,9.00
2023-04-27T08:49:08.690Z,15.50
2023-04-27T08:51:35.823Z,17.00
2023-04-27T08:54:02.615Z,1.00
2023-04-27T08:56:30.942Z,1.00
2023-04-27T08:58:58.924Z,1.00
2023-04-27T09:01:27.305Z,1.00
2023-04-27T09:03:59.680Z,1.00
2023-04-27T09:06:31.908Z,1.00
2023-04-27T09:08:59.695Z,1.00
2023-04-27T09:11:38.070Z,1.00
2023-04-27T09:14:20.471Z,1.00
2023-04-27T09:16:57.341Z,1.00
2023-04-27T09:19:25.857Z,1.00
2023-04-27T09:22:04.266Z,1.00
2023-04-27T09:24:31.128Z,1.00
2023-04-27T09:27:00.133Z,1.00
2023-04-27T09:29:38.064Z,1.00
2023-04-27T09:32:23.363Z,1.00
2023-04-27T09:34:50.242Z,1.00
2023-04-27T09:37:17.161Z,1.00
2023-04-27T09:39:46.153Z,1.00
2023-04-27T09:42:13.517Z,1.00
2023-04-27T09:44:40.290Z,1.00
2023-04-27T09:47:07.824Z,1.00
2023-04-27T09:49:35.707Z,1.00
2023-04-27T09:52:02.523Z,1.00
2023-04-27T09:54:33.468Z,1.00
2023-04-27T09:57:18.083Z,1.00
2023-04-27T10:00:23.561Z,93.00
2023-04-27T10:03:33.509Z,91.80
2023-04-27T10:06:35.134Z,91.90
2023-04-27T10:09:06.136Z,92.20
2023-04-27T10:11:44.403Z,92.40
2023-04-27T10:14:18.243Z,90.80
2023-04-27T10:16:51.376Z,90.70
2023-04-27T10:19:18.452Z,90.20
2023-04-27T10:21:52.430Z,88.30
2023-04-27T10:24:19.172Z,84.50
2023-04-27T10:26:48.763Z,83.70
2023-04-27T10:29:16.420Z,83.30
2023-04-27T10:31:48.718Z,86.50
2023-04-27T10:34:21.361Z,85.50
2023-04-27T10:36:48.424Z,82.40
2023-04-27T10:39:20.345Z,81.80
2023-04-27T10:41:56.780Z,77.20
2023-04-27T10:44:31.432Z,78.00
2023-04-27T10:47:12.287Z,82.10
2023-04-27T10:49:39.699Z,74.90
2023-04-27T10:52:07.026Z,76.20
2023-04-27T10:54:34.785Z,73.90
2023-04-27T10:57:09.693Z,74.40
2023-04-27T10:59:50.938Z,80.80
2023-04-27T11:02:18.156Z,80.10
2023-04-27T11:04:45.110Z,75.60
2023-04-27T11:07:12.302Z,75.50
2023-04-27T11:09:43.278Z,75.70
2023-04-27T11:12:13.889Z,75.30
2023-04-27T11:14:40.715Z,73.00
2023-04-27T11:17:07.541Z,73.40
2023-04-27T11:19:47.823Z,72.50
2023-04-27T11:22:18.686Z,70.90
2023-04-27T11:24:52.584Z,73.40
2023-04-27T11:27:22.032Z,75.30
2023-04-27T11:29:48.857Z,72.10
2023-04-27T11:32:23.076Z,73.00
2023-04-27T11:34:53.731Z,71.90
2023-04-27T11:37:25.380Z,73.20
2023-04-27T11:39:54.259Z,70.10
2023-04-27T11:42:22.157Z,70.00
2023-04-27T11:44:54.335Z,69.60
2023-04-27T11:47:22.782Z,68.20
2023-04-27T11:49:51.632Z,72.60
2023-04-27T11:52:18.984Z,73.10
2023-04-27T11:54:56.375Z,70.20
2023-04-27T11:57:41.171Z,68.30
2023-04-27T12:00:12.065Z,68.90
2023-04-27T12:02:39.214Z,69.40
2023-04-27T12:05:07.683Z,68.90
2023-04-27T12:07:34.594Z,67.10
2023-04-27T12:10:01.514Z,68.00
2023-04-27T12:12:28.309Z,66.00
2023-04-27T12:14:55.006Z,69.00
2023-04-27T12:17:21.773Z,68.50
2023-04-27T12:19:48.971Z,67.00
2023-04-27T12:22:16.286Z,65.90
2023-04-27T12:24:43.083Z,64.80
2023-04-27T12:27:10.075Z,64.00
2023-04-27T12:29:37.549Z,64.20
2023-04-27T12:32:04.617Z,65.20
2023-04-27T12:34:31.481Z,65.80
2023-04-27T12:36:58.306Z,66.90
2023-04-27T12:39:25.500Z,65.60
2023-04-27T12:41:52.981Z,65.20
2023-04-27T12:44:21.258Z,65.10
2023-04-27T12:46:50.804Z,66.10
2023-04-27T12:49:18.036Z,66.30
2023-04-27T12:51:46.667Z,65.20
2023-04-27T12:54:13.620Z,66.80
2023-04-27T12:56:41.866Z,63.60
2023-04-27T12:59:08.677Z,64.10
2023-04-27T13:01:35.534Z,67.70
2023-04-27T13:04:03.956Z,66.50
2023-04-27T13:06:32.059Z,63.80
2023-04-27T13:08:59.876Z,63.50
2023-04-27T13:11:27.046Z,64.80
2023-04-27T13:13:54.989Z,63.90
2023-04-27T13:16:24.702Z,62.20
2023-04-27T13:18:52.379Z,61.90
2023-04-27T13:21:19.540Z,62.20
2023-04-27T13:23:47.814Z,61.50
2023-04-27T13:26:16.004Z,61.20
2023-04-27T13:28:42.899Z,61.80
2023-04-27T13:31:10.057Z,61.80
2023-04-27T13:33:41.912Z,62.10
2023-04-27T13:36:10.539Z,60.80
2023-04-27T13:38:37.475Z,61.90
2023-04-27T13:41:04.578Z,62.50
2023-04-27T13:43:31.762Z,64.10
2023-04-27T13:46:01.508Z,63.00
2023-04-27T13:48:29.437Z,62.20
2023-04-27T13:50:56.529Z,61.10
2023-04-27T13:53:26.885Z,62.40
2023-04-27T13:55:58.060Z,62.00
2023-04-27T13:58:26.192Z,61.20
2023-04-27T14:00:53.822Z,61.10
2023-04-27T14:03:21.625Z,61.50
2023-04-27T14:05:50.351Z,61.80
2023-04-27T14:08:17.813Z,60.40
2023-04-27T14:10:48.472Z,60.20
2023-04-27T14:13:15.419Z,60.70
2023-04-27T14:15:42.245Z,60.50
2023-04-27T14:18:09.619Z,61.30
2023-04-27T14:20:37.285Z,60.20
2023-04-27T14:23:05.793Z,59.20
2023-04-27T14:25:34.378Z,58.20
2023-04-27T14:28:02.697Z,55.30
2023-04-27T14:30:29.675Z,58.40
2023-04-27T14:32:56.665Z,58.70
2023-04-27T14:35:23.872Z,61.40
2023-04-27T14:37:53.960Z,61.80
2023-04-27T14:40:20.660Z,61.70
2023-04-27T14:42:47.528Z,58.40
2023-04-27T14:45:15.950Z,60.10
2023-04-27T14:47:42.822Z,59.90
2023-04-27T14:50:11.576Z,61.90
2023-04-27T14:52:38.803Z,60.50
2023-04-27T14:55:06.779Z,62.50
2023-04-27T14:57:33.582Z,62.80
2023-04-27T15:00:00.856Z,62.70
2023-04-27T15:02:27.778Z,62.20
2023-04-27T15:04:54.688Z,62.40
2023-04-27T15:07:21.486Z,61.90
2023-04-27T15:09:48.325Z,61.40
2023-04-27T15:12:15.081Z,61.80
2023-04-27T15:14:41.869Z,60.50
2023-04-27T15:17:08.613Z,59.00
2023-04-27T15:19:35.710Z,59.60
2023-04-27T15:22:02.414Z,59.80
2023-04-27T15:24:29.257Z,60.60
2023-04-27T15:26:56.046Z,61.70
2023-04-27T15:29:22.885Z,60.70
2023-04-27T15:31:49.823Z,59.30
2023-04-27T15:34:16.890Z,59.20
2023-04-27T15:36:43.641Z,54.90
2023-04-27T15:39:10.657Z,56.70
2023-04-27T15:41:37.512Z,59.50
2023-04-27T15:44:05.162Z,56.10
2023-04-27T15:46:31.952Z,55.30
2023-04-27T15:48:58.802Z,58.90
2023-04-27T15:51:25.535Z,58.20
2023-04-27T15:53:52.297Z,57.40
2023-04-27T15:56:19.109Z,56.10
2023-04-27T15:58:46.210Z,54.80
2023-04-27T16:01:13.039Z,60.20
2023-04-27T16:03:39.924Z,61.30
2023-04-27T16:06:07.138Z,61.00
2023-04-27T16:08:33.861Z,60.60
2023-04-27T16:11:00.793Z,61.00
2023-04-27T16:13:28.551Z,61.00
2023-04-27T16:15:55.458Z,60.50
2023-04-27T16:18:22.287Z,61.10
2023-04-27T16:20:49.039Z,61.10
2023-04-27T16:23:17.037Z,61.30
2023-04-27T16:25:43.802Z,61.20
2023-04-27T16:28:10.543Z,61.90
2023-04-27T16:30:38.399Z,61.80
2023-04-27T16:33:05.182Z,61.60
2023-04-27T16:35:33.556Z,61.50
2023-04-27T16:38:00.400Z,62.00
2023-04-27T16:40:27.481Z,61.30
2023-04-27T16:42:54.271Z,61.60
2023-04-27T16:45:21.214Z,62.00
2023-04-27T16:47:47.975Z,61.50
2023-04-27T16:50:14.992Z,62.40
2023-04-27T16:52:41.739Z,62.00
2023-04-27T16:55:09.114Z,62.10
2023-04-27T16:57:36.147Z,64.20
2023-04-27T17:00:05.821Z,65.90
2023-04-27T17:02:32.714Z,67.60
2023-04-27T17:05:00.643Z,69.30
2023-04-27T17:07:32.728Z,70.50
2023-04-27T17:09:59.763Z,71.40
2023-04-27T17:12:26.592Z,71.00
2023-04-27T17:14:53.332Z,71.20
2023-04-27T17:17:20.250Z,71.00
2023-04-27T17:19:47.073Z,68.30
2023-04-27T17:22:14.862Z,69.30
2023-04-27T17:24:41.701Z,70.70
2023-04-27T17:27:08.530Z,69.40
2023-04-27T17:29:35.357Z,70.90
2023-04-27T17:32:02.076Z,71.90
2023-04-27T17:34:28.989Z,72.30
2023-04-27T17:36:55.805Z,70.10
2023-04-27T17:39:25.051Z,70.90
2023-04-27T17:41:52.034Z,70.40
2023-04-27T17:44:18.903Z,72.40
2023-04-27T17:46:50.584Z,72.40
2023-04-27T17:49:18.826Z,72.70
2023-04-27T17:51:47.089Z,74.50
2023-04-27T17:54:13.871Z,76.90
2023-04-27T17:56:40.596Z,76.80
2023-04-27T17:59:08.334Z,80.80
2023-04-27T18:01:35.302Z,90.20
2023-04-27T18:04:04.320Z,1.00
2023-04-27T18:06:32.139Z,1.00
2023-04-27T18:08:58.988Z,1.00
2023-04-27T18:11:25.880Z,25.80
2023-04-27T18:13:54.655Z,60.50
2023-04-27T18:16:21.540Z,67.80
2023-04-27T18:18:48.265Z,75.20
2023-04-27T18:21:14.959Z,87.10
2023-04-27T18:23:42.611Z,92.20
2023-04-27T18:26:11.533Z,1.00
2023-04-27T18:28:40.161Z,92.20
2023-04-27T18:31:14.528Z,1.00
2023-04-27T18:33:41.740Z,1.00
2023-04-27T18:36:08.792Z,1.00
2023-04-27T18:38:35.860Z,1.00
2023-04-27T18:41:03.217Z,1.00
2023-04-27T18:43:30.052Z,1.00
2023-04-27T18:45:56.876Z,29.90
2023-04-27T18:48:23.649Z,43.70
2023-04-27T18:50:50.542Z,60.70
2023-04-27T18:53:17.328Z,77.50
2023-04-27T18:55:44.019Z,1.00
2023-04-27T18:58:10.882Z,14.20
2023-04-27T19:00:38.462Z,34.70
2023-04-27T19:03:06.361Z,62.80
2023-04-27T19:05:33.491Z,76.70
2023-04-27T19:08:00.293Z,1.00
2023-04-27T19:10:27.069Z,11.80
2023-04-27T19:12:55.974Z,1.00
2023-04-27T19:15:22.832Z,1.00
2023-04-27T19:18:01.783Z,1.00
2023-04-27T19:20:34.127Z,12.00
2023-04-27T19:23:01.795Z,86.40
2023-04-27T19:25:28.800Z,86.30
2023-04-27T19:27:55.599Z,1.00
2023-04-27T19:30:22.441Z,1.00
2023-04-27T19:32:49.294Z,1.00
2023-04-27T19:35:16.196Z,61.10
2023-04-27T19:37:42.876Z,1.00
2023-04-27T19:40:10.162Z,47.00
2023-04-27T19:42:36.888Z,1.00
2023-04-27T19:45:04.017Z,14.80
2023-04-27T19:47:31.013Z,57.90
2023-04-27T19:49:59.096Z,3.80
2023-04-27T19:52:26.378Z,1.00
2023-04-27T19:54:53.700Z,1.00
2023-04-27T19:57:21.334Z,1.00
2023-04-27T19:59:48.619Z,1.00
2023-04-27T20:02:15.820Z,33.00
2023-04-27T20:04:43.003Z,79.50
2023-04-27T20:07:09.997Z,1.00
2023-04-27T20:09:36.804Z,69.90
2023-04-27T20:12:05.124Z,81.70
2023-04-27T20:14:35.074Z,78.60
2023-04-27T20:17:02.953Z,1.00
2023-04-27T20:19:31.059Z,88.40
2023-04-27T20:21:57.884Z,83.20
2023-04-27T20:24:24.649Z,89.80
2023-04-27T20:26:51.453Z,35.80
2023-04-27T20:29:18.261Z,68.30
2023-04-27T20:31:45.027Z,81.80
2023-04-27T20:34:12.271Z,1.00
2023-04-27T20:36:39.076Z,86.70
2023-04-27T20:39:05.831Z,1.00
2023-04-27T20:41:35.754Z,88.60
2023-04-27T20:44:02.743Z,1.00
2023-04-27T20:46:29.898Z,1.00
2023-04-27T20:48:56.666Z,1.00
2023-04-27T20:51:23.606Z,1.00
2023-04-27T20:53:50.946Z,63.10
2023-04-27T20:56:17.639Z,78.80
2023-04-27T20:58:44.339Z,78.50
2023-04-27T21:01:11.310Z,71.20
2023-04-27T21:03:38.296Z,70.20
2023-04-27T21:06:05.487Z,87.10
2023-04-27T21:08:32.248Z,1.00
2023-04-27T21:10:59.345Z,1.00
2023-04-27T21:13:26.153Z,1.00
2023-04-27T21:15:53.153Z,1.00
2023-04-27T21:18:29.558Z,1.00
2023-04-27T21:20:57.578Z,3.60
2023-04-27T21:23:24.414Z,23.30
2023-04-27T21:25:51.131Z,30.40
2023-04-27T21:28:17.896Z,24.00
2023-04-27T21:30:44.814Z,55.40
2023-04-27T21:33:11.659Z,60.00
2023-04-27T21:35:38.514Z,66.80
2023-04-27T21:38:05.257Z,78.20
2023-04-27T21:40:31.979Z,77.60
2023-04-27T21:42:58.690Z,73.60
2023-04-27T21:46:12.617Z,72.20
2023-04-27T21:48:39.368Z,84.70
2023-04-27T21:51:06.258Z,1.00
2023-04-27T21:53:33.051Z,1.00
2023-04-27T21:56:00.059Z,1.00
2023-04-27T21:58:26.958Z,1.00
2023-04-27T22:00:53.755Z,1.00
2023-04-27T22:03:21.542Z,1.00
2023-04-27T22:05:52.846Z,1.00
2023-04-27T22:08:19.844Z,1.00
2023-04-27T22:10:47.193Z,1.00
2023-04-27T22:15:43.808Z,1.00
2023-04-27T22:18:10.548Z,1.00
2023-04-27T22:20:37.240Z,1.00
2023-04-27T22:23:04.036Z,17.60
2023-04-27T22:25:31.172Z,37.60
2023-04-27T22:27:57.916Z,56.80
2023-04-27T22:30:25.101Z,70.10
2023-04-27T22:32:52.393Z,75.00
2023-04-27T22:35:26.295Z,88.10
2023-04-27T22:37:57.832Z,92.50
2023-04-27T22:40:24.757Z,95.50
2023-04-27T22:42:52.118Z,1.00
2023-04-27T22:45:18.925Z,1.00
2023-04-27T22:47:46.228Z,1.00
2023-04-27T22:50:13.478Z,1.00
2023-04-27T22:52:42.357Z,95.00
2023-04-27T22:55:10.146Z,93.60
2023-04-27T22:57:37.613Z,93.30
2023-04-27T23:00:11.656Z,95.90
2023-04-27T23:02:42.704Z,1.00
2023-04-27T23:05:11.041Z,1.00
2023-04-27T23:07:38.323Z,1.00
2023-04-27T23:10:05.905Z,1.00
2023-04-27T23:12:33.205Z,1.00
2023-04-27T23:15:00.057Z,1.00
2023-04-27T23:17:33.018Z,1.00
2023-04-27T23:20:00.950Z,1.00
2023-04-27T23:22:28.459Z,1.00
2023-04-27T23:24:55.375Z,1.00
2023-04-27T23:27:23.599Z,1.00
2023-04-27T23:29:50.659Z,1.00
2023-04-27T23:32:17.521Z,1.00
2023-04-27T23:34:44.202Z,1.00
2023-04-27T23:37:10.978Z,1.00
2023-04-27T23:39:38.327Z,2.10
2023-04-27T23:42:05.250Z,1.60
2023-04-27T23:44:32.011Z,1.00
2023-04-27T23:46:59.185Z,1.00
2023-04-27T23:49:25.860Z,1.00
2023-04-27T23:51:52.930Z,1.00
2023-04-27T23:54:19.752Z,5.40
2023-04-27T23:56:47.171Z,11.60
2023-04-27T23:59:15.061Z,15.00
